sensor_id;sensor_type;location;lat;lon;timestamp;temperature;humidity
20795;DHT22;28087;-33.874;151.240;2023-04-03T00:02:09;21.00;80.30
20795;DHT22;28087;-33.874;151.240;2023-04-03T00:04:48;20.90;80.30
20795;DHT22;28087;-33.874;151.240;2023-04-03T00:07:22;20.80;80.30
20795;DHT22;28087;-33.874;151.240;2023-04-03T00:09:56;20.70;80.30
20795;DHT22;28087;-33.874;151.240;2023-04-03T00:12:32;20.80;80.30
20795;DHT22;28087;-33.874;151.240;2023-04-03T00:15:06;20.70;80.30
20795;DHT22;28087;-33.874;151.240;2023-04-03T00:17:40;20.80;80.30
20795;DHT22;28087;-33.874;151.240;2023-04-03T00:20:16;20.70;80.30
20795;DHT22;28087;-33.874;151.240;2023-04-03T00:22:51;20.80;80.30
20795;DHT22;28087;-33.874;151.240;2023-04-03T00:25:25;20.80;80.30
20795;DHT22;28087;-33.874;151.240;2023-04-03T00:28:00;20.90;80.30
20795;DHT22;28087;-33.874;151.240;2023-04-03T00:30:34;20.90;80.30
20795;DHT22;28087;-33.874;151.240;2023-04-03T00:33:09;20.90;80.30
20795;DHT22;28087;-33.874;151.240;2023-04-03T00:35:46;20.90;80.30
20795;DHT22;28087;-33.874;151.240;2023-04-03T00:38:20;21.00;80.30
20795;DHT22;28087;-33.874;151.240;2023-04-03T00:40:54;21.10;80.30
20795;DHT22;28087;-33.874;151.240;2023-04-03T00:43:29;21.20;80.30
20795;DHT22;28087;-33.874;151.240;2023-04-03T00:46:04;21.20;80.30
20795;DHT22;28087;-33.874;151.240;2023-04-03T00:48:38;21.30;80.30
20795;DHT22;28087;-33.874;151.240;2023-04-03T00:51:16;21.40;80.30
20795;DHT22;28087;-33.874;151.240;2023-04-03T00:53:53;21.60;80.30
20795;DHT22;28087;-33.874;151.240;2023-04-03T00:56:28;21.70;80.30
20795;DHT22;28087;-33.874;151.240;2023-04-03T00:59:04;21.90;80.30
20795;DHT22;28087;-33.874;151.240;2023-04-03T01:01:39;22.00;80.30
20795;DHT22;28087;-33.874;151.240;2023-04-03T01:04:25;22.20;80.30
20795;DHT22;28087;-33.874;151.240;2023-04-03T01:07:03;22.30;80.30
20795;DHT22;28087;-33.874;151.240;2023-04-03T01:09:38;22.40;80.30
20795;DHT22;28087;-33.874;151.240;2023-04-03T01:12:13;22.70;80.20
20795;DHT22;28087;-33.874;151.240;2023-04-03T01:14:50;23.10;79.50
20795;DHT22;28087;-33.874;151.240;2023-04-03T01:17:26;23.30;78.90
20795;DHT22;28087;-33.874;151.240;2023-04-03T01:23:15;23.60;78.00
20795;DHT22;28087;-33.874;151.240;2023-04-03T01:25:54;23.70;76.90
20795;DHT22;28087;-33.874;151.240;2023-04-03T01:28:31;23.40;74.10
20795;DHT22;28087;-33.874;151.240;2023-04-03T01:31:08;23.30;74.80
20795;DHT22;28087;-33.874;151.240;2023-04-03T01:33:48;23.30;75.50
20795;DHT22;28087;-33.874;151.240;2023-04-03T01:36:23;23.70;75.40
20795;DHT22;28087;-33.874;151.240;2023-04-03T01:38:58;23.80;74.30
20795;DHT22;28087;-33.874;151.240;2023-04-03T01:41:33;24.10;75.10
20795;DHT22;28087;-33.874;151.240;2023-04-03T01:44:19;24.20;74.50
20795;DHT22;28087;-33.874;151.240;2023-04-03T01:46:54;24.40;73.80
20795;DHT22;28087;-33.874;151.240;2023-04-03T01:49:32;24.60;70.70
20795;DHT22;28087;-33.874;151.240;2023-04-03T01:52:07;24.80;70.50
20795;DHT22;28087;-33.874;151.240;2023-04-03T01:54:41;24.70;69.10
20795;DHT22;28087;-33.874;151.240;2023-04-03T01:57:16;24.30;67.10
20795;DHT22;28087;-33.874;151.240;2023-04-03T01:59:51;24.60;69.40
20795;DHT22;28087;-33.874;151.240;2023-04-03T02:02:25;24.60;67.80
20795;DHT22;28087;-33.874;151.240;2023-04-03T02:05:01;24.90;68.70
20795;DHT22;28087;-33.874;151.240;2023-04-03T02:07:36;25.20;65.40
20795;DHT22;28087;-33.874;151.240;2023-04-03T02:10:10;25.20;66.70
20795;DHT22;28087;-33.874;151.240;2023-04-03T02:12:45;25.30;66.40
20795;DHT22;28087;-33.874;151.240;2023-04-03T02:15:20;25.30;65.70
20795;DHT22;28087;-33.874;151.240;2023-04-03T02:17:55;25.00;65.70
20795;DHT22;28087;-33.874;151.240;2023-04-03T02:20:32;24.90;67.20
20795;DHT22;28087;-33.874;151.240;2023-04-03T02:23:06;25.10;66.00
20795;DHT22;28087;-33.874;151.240;2023-04-03T02:25:40;25.10;65.60
20795;DHT22;28087;-33.874;151.240;2023-04-03T02:28:15;25.10;65.10
20795;DHT22;28087;-33.874;151.240;2023-04-03T02:30:50;25.00;66.20
20795;DHT22;28087;-33.874;151.240;2023-04-03T02:33:24;25.20;66.50
20795;DHT22;28087;-33.874;151.240;2023-04-03T02:36:01;25.30;66.20
20795;DHT22;28087;-33.874;151.240;2023-04-03T02:38:36;25.10;65.50
20795;DHT22;28087;-33.874;151.240;2023-04-03T02:41:12;24.90;65.10
20795;DHT22;28087;-33.874;151.240;2023-04-03T02:43:46;24.70;67.10
20795;DHT22;28087;-33.874;151.240;2023-04-03T02:46:20;24.90;67.10
20795;DHT22;28087;-33.874;151.240;2023-04-03T02:48:55;24.80;66.80
20795;DHT22;28087;-33.874;151.240;2023-04-03T02:51:32;24.10;68.60
20795;DHT22;28087;-33.874;151.240;2023-04-03T02:54:07;23.80;69.30
20795;DHT22;28087;-33.874;151.240;2023-04-03T02:56:46;23.60;70.90
20795;DHT22;28087;-33.874;151.240;2023-04-03T02:59:20;24.00;70.70
20795;DHT22;28087;-33.874;151.240;2023-04-03T03:01:55;24.40;69.60
20795;DHT22;28087;-33.874;151.240;2023-04-03T03:04:30;24.70;68.20
20795;DHT22;28087;-33.874;151.240;2023-04-03T03:07:06;24.50;69.50
20795;DHT22;28087;-33.874;151.240;2023-04-03T03:09:42;24.80;68.20
20795;DHT22;28087;-33.874;151.240;2023-04-03T03:12:16;24.70;67.10
20795;DHT22;28087;-33.874;151.240;2023-04-03T03:14:52;24.50;67.80
20795;DHT22;28087;-33.874;151.240;2023-04-03T03:17:27;24.60;68.60
20795;DHT22;28087;-33.874;151.240;2023-04-03T03:20:01;24.60;68.30
20795;DHT22;28087;-33.874;151.240;2023-04-03T03:22:38;24.60;67.20
20795;DHT22;28087;-33.874;151.240;2023-04-03T03:25:12;24.60;67.50
20795;DHT22;28087;-33.874;151.240;2023-04-03T03:27:47;24.70;67.50
20795;DHT22;28087;-33.874;151.240;2023-04-03T03:30:22;24.80;65.70
20795;DHT22;28087;-33.874;151.240;2023-04-03T03:32:58;24.40;67.10
20795;DHT22;28087;-33.874;151.240;2023-04-03T03:35:32;24.60;67.50
20795;DHT22;28087;-33.874;151.240;2023-04-03T03:38:08;24.80;66.40
20795;DHT22;28087;-33.874;151.240;2023-04-03T03:40:43;24.70;64.40
20795;DHT22;28087;-33.874;151.240;2023-04-03T03:43:19;24.50;67.00
20795;DHT22;28087;-33.874;151.240;2023-04-03T03:45:54;24.50;65.40
20795;DHT22;28087;-33.874;151.240;2023-04-03T03:48:29;24.60;65.60
20795;DHT22;28087;-33.874;151.240;2023-04-03T03:51:04;24.70;65.10
20795;DHT22;28087;-33.874;151.240;2023-04-03T03:53:42;24.90;65.10
20795;DHT22;28087;-33.874;151.240;2023-04-03T03:56:19;25.10;65.10
20795;DHT22;28087;-33.874;151.240;2023-04-03T03:58:53;25.20;63.70
20795;DHT22;28087;-33.874;151.240;2023-04-03T04:01:29;25.00;63.70
20795;DHT22;28087;-33.874;151.240;2023-04-03T04:04:04;25.10;64.30
20795;DHT22;28087;-33.874;151.240;2023-04-03T04:06:38;25.20;64.10
20795;DHT22;28087;-33.874;151.240;2023-04-03T04:09:15;25.40;63.80
20795;DHT22;28087;-33.874;151.240;2023-04-03T04:11:50;25.50;63.40
20795;DHT22;28087;-33.874;151.240;2023-04-03T04:14:24;25.50;63.20
20795;DHT22;28087;-33.874;151.240;2023-04-03T04:16:59;25.60;63.70
20795;DHT22;28087;-33.874;151.240;2023-04-03T04:19:36;25.40;64.30
20795;DHT22;28087;-33.874;151.240;2023-04-03T04:22:10;24.40;66.90
20795;DHT22;28087;-33.874;151.240;2023-04-03T04:24:47;24.40;67.00
20795;DHT22;28087;-33.874;151.240;2023-04-03T04:27:21;24.40;67.10
20795;DHT22;28087;-33.874;151.240;2023-04-03T04:29:56;24.70;66.90
20795;DHT22;28087;-33.874;151.240;2023-04-03T04:32:30;24.80;66.30
20795;DHT22;28087;-33.874;151.240;2023-04-03T04:35:06;24.60;66.50
20795;DHT22;28087;-33.874;151.240;2023-04-03T04:37:45;24.80;66.70
20795;DHT22;28087;-33.874;151.240;2023-04-03T04:40:21;24.50;67.20
20795;DHT22;28087;-33.874;151.240;2023-04-03T04:42:57;24.70;66.70
20795;DHT22;28087;-33.874;151.240;2023-04-03T04:45:31;24.90;66.40
20795;DHT22;28087;-33.874;151.240;2023-04-03T04:48:07;24.80;64.70
20795;DHT22;28087;-33.874;151.240;2023-04-03T04:50:41;24.50;66.00
20795;DHT22;28087;-33.874;151.240;2023-04-03T04:53:16;24.30;66.00
20795;DHT22;28087;-33.874;151.240;2023-04-03T04:55:53;24.20;66.70
20795;DHT22;28087;-33.874;151.240;2023-04-03T04:58:27;24.40;66.80
20795;DHT22;28087;-33.874;151.240;2023-04-03T05:01:03;24.20;67.40
20795;DHT22;28087;-33.874;151.240;2023-04-03T05:03:47;24.00;67.90
20795;DHT22;28087;-33.874;151.240;2023-04-03T05:06:24;23.90;67.90
20795;DHT22;28087;-33.874;151.240;2023-04-03T05:09:00;24.00;67.70
20795;DHT22;28087;-33.874;151.240;2023-04-03T05:11:37;23.90;67.30
20795;DHT22;28087;-33.874;151.240;2023-04-03T05:14:13;24.00;67.30
20795;DHT22;28087;-33.874;151.240;2023-04-03T05:16:47;23.90;66.20
20795;DHT22;28087;-33.874;151.240;2023-04-03T05:19:27;23.80;66.30
20795;DHT22;28087;-33.874;151.240;2023-04-03T05:22:03;23.80;66.40
20795;DHT22;28087;-33.874;151.240;2023-04-03T05:24:38;23.90;65.90
20795;DHT22;28087;-33.874;151.240;2023-04-03T05:27:15;23.90;66.00
20795;DHT22;28087;-33.874;151.240;2023-04-03T05:29:53;23.90;64.50
20795;DHT22;28087;-33.874;151.240;2023-04-03T05:32:28;23.80;64.90
20795;DHT22;28087;-33.874;151.240;2023-04-03T05:35:16;23.80;64.70
20795;DHT22;28087;-33.874;151.240;2023-04-03T05:37:54;23.70;65.50
20795;DHT22;28087;-33.874;151.240;2023-04-03T05:40:29;23.70;66.10
20795;DHT22;28087;-33.874;151.240;2023-04-03T05:43:05;23.60;66.50
20795;DHT22;28087;-33.874;151.240;2023-04-03T05:45:43;23.60;67.30
20795;DHT22;28087;-33.874;151.240;2023-04-03T05:48:17;23.50;67.50
20795;DHT22;28087;-33.874;151.240;2023-04-03T05:50:51;23.50;67.70
20795;DHT22;28087;-33.874;151.240;2023-04-03T05:53:28;23.40;68.00
20795;DHT22;28087;-33.874;151.240;2023-04-03T05:56:05;23.20;68.70
20795;DHT22;28087;-33.874;151.240;2023-04-03T05:58:43;23.20;69.40
20795;DHT22;28087;-33.874;151.240;2023-04-03T06:01:18;22.90;70.20
20795;DHT22;28087;-33.874;151.240;2023-04-03T06:03:52;22.80;71.10
20795;DHT22;28087;-33.874;151.240;2023-04-03T06:06:35;22.90;71.10
20795;DHT22;28087;-33.874;151.240;2023-04-03T06:09:16;22.90;71.00
20795;DHT22;28087;-33.874;151.240;2023-04-03T06:11:51;22.90;70.30
20795;DHT22;28087;-33.874;151.240;2023-04-03T06:14:27;23.00;69.30
20795;DHT22;28087;-33.874;151.240;2023-04-03T06:17:03;23.00;69.90
20795;DHT22;28087;-33.874;151.240;2023-04-03T06:19:38;23.00;69.40
20795;DHT22;28087;-33.874;151.240;2023-04-03T06:22:12;23.00;68.90
20795;DHT22;28087;-33.874;151.240;2023-04-03T06:24:47;23.00;69.30
20795;DHT22;28087;-33.874;151.240;2023-04-03T06:27:22;23.00;70.00
20795;DHT22;28087;-33.874;151.240;2023-04-03T06:29:58;23.10;69.70
20795;DHT22;28087;-33.874;151.240;2023-04-03T06:32:32;23.10;69.90
20795;DHT22;28087;-33.874;151.240;2023-04-03T06:35:07;23.10;69.70
20795;DHT22;28087;-33.874;151.240;2023-04-03T06:37:42;23.10;69.80
20795;DHT22;28087;-33.874;151.240;2023-04-03T06:40:18;23.10;69.80
20795;DHT22;28087;-33.874;151.240;2023-04-03T06:42:53;23.10;70.20
20795;DHT22;28087;-33.874;151.240;2023-04-03T06:45:28;23.20;70.40
20795;DHT22;28087;-33.874;151.240;2023-04-03T06:48:07;23.10;70.70
20795;DHT22;28087;-33.874;151.240;2023-04-03T06:50:40;23.20;70.60
20795;DHT22;28087;-33.874;151.240;2023-04-03T06:53:14;23.20;70.70
20795;DHT22;28087;-33.874;151.240;2023-04-03T06:55:49;23.10;70.90
20795;DHT22;28087;-33.874;151.240;2023-04-03T06:58:24;23.20;71.00
20795;DHT22;28087;-33.874;151.240;2023-04-03T07:01:00;23.10;71.50
20795;DHT22;28087;-33.874;151.240;2023-04-03T07:03:34;23.20;71.20
20795;DHT22;28087;-33.874;151.240;2023-04-03T07:06:09;23.20;71.40
20795;DHT22;28087;-33.874;151.240;2023-04-03T07:08:45;23.20;71.30
20795;DHT22;28087;-33.874;151.240;2023-04-03T07:11:20;23.20;71.30
20795;DHT22;28087;-33.874;151.240;2023-04-03T07:13:55;23.10;71.40
20795;DHT22;28087;-33.874;151.240;2023-04-03T07:16:31;23.10;71.40
20795;DHT22;28087;-33.874;151.240;2023-04-03T07:19:09;23.10;71.70
20795;DHT22;28087;-33.874;151.240;2023-04-03T07:21:43;23.00;71.70
20795;DHT22;28087;-33.874;151.240;2023-04-03T07:24:17;23.00;71.60
20795;DHT22;28087;-33.874;151.240;2023-04-03T07:26:52;23.00;71.50
20795;DHT22;28087;-33.874;151.240;2023-04-03T07:29:27;23.00;71.70
20795;DHT22;28087;-33.874;151.240;2023-04-03T07:32:03;23.00;71.70
20795;DHT22;28087;-33.874;151.240;2023-04-03T07:34:40;22.90;71.80
20795;DHT22;28087;-33.874;151.240;2023-04-03T07:37:14;23.00;71.70
20795;DHT22;28087;-33.874;151.240;2023-04-03T07:39:49;22.90;71.50
20795;DHT22;28087;-33.874;151.240;2023-04-03T07:42:24;22.90;71.10
20795;DHT22;28087;-33.874;151.240;2023-04-03T07:45:01;22.80;71.30
20795;DHT22;28087;-33.874;151.240;2023-04-03T07:47:37;22.80;71.90
20795;DHT22;28087;-33.874;151.240;2023-04-03T07:50:12;22.80;71.60
20795;DHT22;28087;-33.874;151.240;2023-04-03T07:52:46;22.80;71.90
20795;DHT22;28087;-33.874;151.240;2023-04-03T07:55:21;22.80;71.90
20795;DHT22;28087;-33.874;151.240;2023-04-03T07:57:56;22.80;71.40
20795;DHT22;28087;-33.874;151.240;2023-04-03T08:00:31;22.80;71.00
20795;DHT22;28087;-33.874;151.240;2023-04-03T08:03:08;22.90;70.50
20795;DHT22;28087;-33.874;151.240;2023-04-03T08:05:43;22.90;69.60
20795;DHT22;28087;-33.874;151.240;2023-04-03T08:08:18;22.70;69.50
20795;DHT22;28087;-33.874;151.240;2023-04-03T08:10:53;22.80;68.50
20795;DHT22;28087;-33.874;151.240;2023-04-03T08:13:28;22.80;68.70
20795;DHT22;28087;-33.874;151.240;2023-04-03T08:16:10;22.80;67.80
20795;DHT22;28087;-33.874;151.240;2023-04-03T08:18:47;22.80;67.90
20795;DHT22;28087;-33.874;151.240;2023-04-03T08:21:22;22.80;66.70
20795;DHT22;28087;-33.874;151.240;2023-04-03T08:23:56;22.80;67.30
20795;DHT22;28087;-33.874;151.240;2023-04-03T08:26:30;22.80;67.90
20795;DHT22;28087;-33.874;151.240;2023-04-03T08:29:04;22.80;67.60
20795;DHT22;28087;-33.874;151.240;2023-04-03T08:31:39;22.90;67.70
20795;DHT22;28087;-33.874;151.240;2023-04-03T08:34:16;22.90;67.90
20795;DHT22;28087;-33.874;151.240;2023-04-03T08:36:50;22.80;66.80
20795;DHT22;28087;-33.874;151.240;2023-04-03T08:39:24;22.80;67.90
20795;DHT22;28087;-33.874;151.240;2023-04-03T08:41:59;22.80;67.10
20795;DHT22;28087;-33.874;151.240;2023-04-03T08:44:38;22.80;66.90
20795;DHT22;28087;-33.874;151.240;2023-04-03T08:47:13;22.80;67.00
20795;DHT22;28087;-33.874;151.240;2023-04-03T08:49:54;22.70;67.30
20795;DHT22;28087;-33.874;151.240;2023-04-03T08:52:31;22.70;67.00
20795;DHT22;28087;-33.874;151.240;2023-04-03T08:55:17;22.70;66.80
20795;DHT22;28087;-33.874;151.240;2023-04-03T08:57:56;22.80;66.50
20795;DHT22;28087;-33.874;151.240;2023-04-03T09:00:34;22.80;66.50
20795;DHT22;28087;-33.874;151.240;2023-04-03T09:03:12;22.90;65.90
20795;DHT22;28087;-33.874;151.240;2023-04-03T09:05:50;22.80;64.80
20795;DHT22;28087;-33.874;151.240;2023-04-03T09:08:27;22.90;64.80
20795;DHT22;28087;-33.874;151.240;2023-04-03T09:11:09;22.90;64.80
20795;DHT22;28087;-33.874;151.240;2023-04-03T09:13:49;22.80;65.50
20795;DHT22;28087;-33.874;151.240;2023-04-03T09:16:27;22.80;65.50
20795;DHT22;28087;-33.874;151.240;2023-04-03T09:19:07;22.80;66.10
20795;DHT22;28087;-33.874;151.240;2023-04-03T09:21:52;22.90;66.60
20795;DHT22;28087;-33.874;151.240;2023-04-03T09:24:27;22.90;66.70
20795;DHT22;28087;-33.874;151.240;2023-04-03T09:27:03;22.90;67.00
20795;DHT22;28087;-33.874;151.240;2023-04-03T09:29:39;22.90;66.90
20795;DHT22;28087;-33.874;151.240;2023-04-03T09:32:19;22.80;66.90
20795;DHT22;28087;-33.874;151.240;2023-04-03T09:34:56;22.80;66.90
20795;DHT22;28087;-33.874;151.240;2023-04-03T09:37:48;22.70;66.10
20795;DHT22;28087;-33.874;151.240;2023-04-03T09:40:31;22.80;65.00
20795;DHT22;28087;-33.874;151.240;2023-04-03T09:43:27;22.80;66.80
20795;DHT22;28087;-33.874;151.240;2023-04-03T09:46:28;22.80;66.50
20795;DHT22;28087;-33.874;151.240;2023-04-03T09:49:03;22.80;66.20
20795;DHT22;28087;-33.874;151.240;2023-04-03T09:51:38;22.90;66.50
20795;DHT22;28087;-33.874;151.240;2023-04-03T09:54:30;22.80;65.80
20795;DHT22;28087;-33.874;151.240;2023-04-03T09:57:11;22.80;65.90
20795;DHT22;28087;-33.874;151.240;2023-04-03T09:59:46;22.80;65.70
20795;DHT22;28087;-33.874;151.240;2023-04-03T10:02:30;22.90;65.50
20795;DHT22;28087;-33.874;151.240;2023-04-03T10:08:07;22.80;65.60
20795;DHT22;28087;-33.874;151.240;2023-04-03T10:10:44;22.80;65.40
20795;DHT22;28087;-33.874;151.240;2023-04-03T10:13:18;22.80;65.40
20795;DHT22;28087;-33.874;151.240;2023-04-03T10:15:54;22.70;65.40
20795;DHT22;28087;-33.874;151.240;2023-04-03T10:18:32;22.80;65.60
20795;DHT22;28087;-33.874;151.240;2023-04-03T10:21:13;22.80;65.80
20795;DHT22;28087;-33.874;151.240;2023-04-03T10:23:57;22.80;66.10
20795;DHT22;28087;-33.874;151.240;2023-04-03T10:26:39;22.80;65.90
20795;DHT22;28087;-33.874;151.240;2023-04-03T10:29:18;22.70;65.60
20795;DHT22;28087;-33.874;151.240;2023-04-03T10:31:59;22.70;66.10
20795;DHT22;28087;-33.874;151.240;2023-04-03T10:34:37;22.70;66.30
20795;DHT22;28087;-33.874;151.240;2023-04-03T10:37:20;22.70;66.00
20795;DHT22;28087;-33.874;151.240;2023-04-03T10:39:57;22.70;66.20
20795;DHT22;28087;-33.874;151.240;2023-04-03T10:42:35;22.70;65.70
20795;DHT22;28087;-33.874;151.240;2023-04-03T10:45:19;22.70;66.10
20795;DHT22;28087;-33.874;151.240;2023-04-03T10:47:58;22.70;66.30
20795;DHT22;28087;-33.874;151.240;2023-04-03T10:50:38;22.80;66.30
20795;DHT22;28087;-33.874;151.240;2023-04-03T10:53:16;22.70;66.40
20795;DHT22;28087;-33.874;151.240;2023-04-03T10:55:53;22.70;66.40
20795;DHT22;28087;-33.874;151.240;2023-04-03T10:58:36;22.70;66.20
20795;DHT22;28087;-33.874;151.240;2023-04-03T11:01:23;22.70;66.10
20795;DHT22;28087;-33.874;151.240;2023-04-03T11:03:59;22.70;66.30
20795;DHT22;28087;-33.874;151.240;2023-04-03T11:06:35;22.80;66.30
20795;DHT22;28087;-33.874;151.240;2023-04-03T11:09:13;22.70;66.10
20795;DHT22;28087;-33.874;151.240;2023-04-03T11:11:51;22.70;66.70
20795;DHT22;28087;-33.874;151.240;2023-04-03T11:14:37;22.70;67.10
20795;DHT22;28087;-33.874;151.240;2023-04-03T11:17:15;22.70;67.00
20795;DHT22;28087;-33.874;151.240;2023-04-03T11:19:58;22.70;66.80
20795;DHT22;28087;-33.874;151.240;2023-04-03T11:22:37;22.60;66.50
20795;DHT22;28087;-33.874;151.240;2023-04-03T11:25:15;22.70;66.70
20795;DHT22;28087;-33.874;151.240;2023-04-03T11:27:54;22.70;67.20
20795;DHT22;28087;-33.874;151.240;2023-04-03T11:30:31;22.60;67.40
20795;DHT22;28087;-33.874;151.240;2023-04-03T11:33:25;22.70;67.10
20795;DHT22;28087;-33.874;151.240;2023-04-03T11:36:05;22.70;66.70
20795;DHT22;28087;-33.874;151.240;2023-04-03T11:38:54;22.70;66.70
20795;DHT22;28087;-33.874;151.240;2023-04-03T11:41:29;22.70;66.80
20795;DHT22;28087;-33.874;151.240;2023-04-03T11:44:06;22.60;66.80
20795;DHT22;28087;-33.874;151.240;2023-04-03T11:46:55;22.70;66.50
20795;DHT22;28087;-33.874;151.240;2023-04-03T11:52:54;22.70;66.90
20795;DHT22;28087;-33.874;151.240;2023-04-03T11:55:46;22.70;66.60
20795;DHT22;28087;-33.874;151.240;2023-04-03T11:58:26;22.70;66.80
20795;DHT22;28087;-33.874;151.240;2023-04-03T12:01:05;22.60;66.70
20795;DHT22;28087;-33.874;151.240;2023-04-03T12:09:33;22.60;65.80
20795;DHT22;28087;-33.874;151.240;2023-04-03T12:15:22;22.60;65.30
20795;DHT22;28087;-33.874;151.240;2023-04-03T12:17:57;22.60;65.40
20795;DHT22;28087;-33.874;151.240;2023-04-03T12:20:52;22.50;65.50
20795;DHT22;28087;-33.874;151.240;2023-04-03T12:23:27;22.50;65.30
20795;DHT22;28087;-33.874;151.240;2023-04-03T12:26:05;22.50;65.90
20795;DHT22;28087;-33.874;151.240;2023-04-03T12:28:40;22.60;65.40
20795;DHT22;28087;-33.874;151.240;2023-04-03T12:31:14;22.60;64.70
20795;DHT22;28087;-33.874;151.240;2023-04-03T12:34:01;22.60;65.50
20795;DHT22;28087;-33.874;151.240;2023-04-03T12:36:41;22.60;65.90
20795;DHT22;28087;-33.874;151.240;2023-04-03T12:39:24;22.60;65.90
20795;DHT22;28087;-33.874;151.240;2023-04-03T12:42:02;22.60;66.00
20795;DHT22;28087;-33.874;151.240;2023-04-03T12:44:41;22.60;65.90
20795;DHT22;28087;-33.874;151.240;2023-04-03T12:47:19;22.60;65.40
20795;DHT22;28087;-33.874;151.240;2023-04-03T12:49:56;22.60;65.90
20795;DHT22;28087;-33.874;151.240;2023-04-03T12:52:36;22.60;65.70
20795;DHT22;28087;-33.874;151.240;2023-04-03T12:55:15;22.50;65.60
20795;DHT22;28087;-33.874;151.240;2023-04-03T12:57:52;22.60;65.20
20795;DHT22;28087;-33.874;151.240;2023-04-03T13:00:29;22.50;65.00
20795;DHT22;28087;-33.874;151.240;2023-04-03T13:03:04;22.50;64.50
20795;DHT22;28087;-33.874;151.240;2023-04-03T13:05:39;22.60;64.90
20795;DHT22;28087;-33.874;151.240;2023-04-03T13:08:13;22.60;65.40
20795;DHT22;28087;-33.874;151.240;2023-04-03T13:10:52;22.50;65.00
20795;DHT22;28087;-33.874;151.240;2023-04-03T13:13:30;22.50;65.70
20795;DHT22;28087;-33.874;151.240;2023-04-03T13:16:07;22.50;65.80
20795;DHT22;28087;-33.874;151.240;2023-04-03T13:18:42;22.40;66.00
20795;DHT22;28087;-33.874;151.240;2023-04-03T13:21:17;22.50;65.80
20795;DHT22;28087;-33.874;151.240;2023-04-03T13:23:53;22.50;66.00
20795;DHT22;28087;-33.874;151.240;2023-04-03T13:26:43;22.50;66.30
20795;DHT22;28087;-33.874;151.240;2023-04-03T13:29:24;22.50;66.00
20795;DHT22;28087;-33.874;151.240;2023-04-03T13:32:01;22.60;66.40
20795;DHT22;28087;-33.874;151.240;2023-04-03T13:34:36;22.60;66.40
20795;DHT22;28087;-33.874;151.240;2023-04-03T13:37:19;22.50;66.90
20795;DHT22;28087;-33.874;151.240;2023-04-03T13:39:58;22.50;67.00
20795;DHT22;28087;-33.874;151.240;2023-04-03T13:42:34;22.40;67.30
20795;DHT22;28087;-33.874;151.240;2023-04-03T13:45:17;22.60;67.20
20795;DHT22;28087;-33.874;151.240;2023-04-03T13:47:52;22.50;67.40
20795;DHT22;28087;-33.874;151.240;2023-04-03T13:50:26;22.40;67.30
20795;DHT22;28087;-33.874;151.240;2023-04-03T13:53:02;22.40;66.70
20795;DHT22;28087;-33.874;151.240;2023-04-03T13:55:50;22.50;66.80
20795;DHT22;28087;-33.874;151.240;2023-04-03T13:58:26;22.40;66.50
20795;DHT22;28087;-33.874;151.240;2023-04-03T14:01:06;22.40;66.30
20795;DHT22;28087;-33.874;151.240;2023-04-03T14:03:43;22.50;66.40
20795;DHT22;28087;-33.874;151.240;2023-04-03T14:06:18;22.40;66.10
20795;DHT22;28087;-33.874;151.240;2023-04-03T14:08:53;22.50;66.40
20795;DHT22;28087;-33.874;151.240;2023-04-03T14:11:28;22.40;66.50
20795;DHT22;28087;-33.874;151.240;2023-04-03T14:14:09;22.50;66.60
20795;DHT22;28087;-33.874;151.240;2023-04-03T14:16:47;22.50;66.70
20795;DHT22;28087;-33.874;151.240;2023-04-03T14:19:24;22.40;66.60
20795;DHT22;28087;-33.874;151.240;2023-04-03T14:21:59;22.50;66.40
20795;DHT22;28087;-33.874;151.240;2023-04-03T14:24:35;22.40;66.30
20795;DHT22;28087;-33.874;151.240;2023-04-03T14:27:12;22.40;66.00
20795;DHT22;28087;-33.874;151.240;2023-04-03T14:29:49;22.40;65.90
20795;DHT22;28087;-33.874;151.240;2023-04-03T14:32:25;22.40;65.90
20795;DHT22;28087;-33.874;151.240;2023-04-03T14:35:00;22.50;65.60
20795;DHT22;28087;-33.874;151.240;2023-04-03T14:37:35;22.50;65.80
20795;DHT22;28087;-33.874;151.240;2023-04-03T14:40:11;22.50;65.90
20795;DHT22;28087;-33.874;151.240;2023-04-03T14:42:47;22.50;66.00
20795;DHT22;28087;-33.874;151.240;2023-04-03T14:45:22;22.40;65.60
20795;DHT22;28087;-33.874;151.240;2023-04-03T14:47:59;22.50;65.30
20795;DHT22;28087;-33.874;151.240;2023-04-03T14:50:33;22.50;65.40
20795;DHT22;28087;-33.874;151.240;2023-04-03T14:53:07;22.40;65.20
20795;DHT22;28087;-33.874;151.240;2023-04-03T14:55:43;22.50;64.70
20795;DHT22;28087;-33.874;151.240;2023-04-03T14:58:19;22.40;65.40
20795;DHT22;28087;-33.874;151.240;2023-04-03T15:00:53;22.30;65.20
20795;DHT22;28087;-33.874;151.240;2023-04-03T15:03:29;22.40;65.70
20795;DHT22;28087;-33.874;151.240;2023-04-03T15:06:05;22.40;65.70
20795;DHT22;28087;-33.874;151.240;2023-04-03T15:08:39;22.40;65.80
20795;DHT22;28087;-33.874;151.240;2023-04-03T15:11:14;22.40;65.50
20795;DHT22;28087;-33.874;151.240;2023-04-03T15:13:48;22.40;66.10
20795;DHT22;28087;-33.874;151.240;2023-04-03T15:16:23;22.40;66.30
20795;DHT22;28087;-33.874;151.240;2023-04-03T15:18:59;22.40;66.30
20795;DHT22;28087;-33.874;151.240;2023-04-03T15:21:33;22.40;66.00
20795;DHT22;28087;-33.874;151.240;2023-04-03T15:24:08;22.30;66.40
20795;DHT22;28087;-33.874;151.240;2023-04-03T15:26:44;22.30;66.30
20795;DHT22;28087;-33.874;151.240;2023-04-03T15:29:19;22.30;66.20
20795;DHT22;28087;-33.874;151.240;2023-04-03T15:31:53;22.40;66.00
20795;DHT22;28087;-33.874;151.240;2023-04-03T15:34:29;22.40;65.90
20795;DHT22;28087;-33.874;151.240;2023-04-03T15:37:04;22.40;65.70
20795;DHT22;28087;-33.874;151.240;2023-04-03T15:39:38;22.30;66.10
20795;DHT22;28087;-33.874;151.240;2023-04-03T15:42:12;22.30;66.30
20795;DHT22;28087;-33.874;151.240;2023-04-03T15:44:47;22.30;66.70
20795;DHT22;28087;-33.874;151.240;2023-04-03T15:47:22;22.30;66.90
20795;DHT22;28087;-33.874;151.240;2023-04-03T15:49:58;22.30;66.90
20795;DHT22;28087;-33.874;151.240;2023-04-03T15:52:32;22.30;67.30
20795;DHT22;28087;-33.874;151.240;2023-04-03T15:55:06;22.20;67.70
20795;DHT22;28087;-33.874;151.240;2023-04-03T15:57:41;22.20;67.80
20795;DHT22;28087;-33.874;151.240;2023-04-03T16:00:15;22.20;67.70
20795;DHT22;28087;-33.874;151.240;2023-04-03T16:02:50;22.10;67.80
20795;DHT22;28087;-33.874;151.240;2023-04-03T16:05:28;22.10;68.00